Time,TemperatureF,DewpointF,PressureIn,WindDirection,WindDirectionDegrees,WindSpeedMPH,WindSpeedGustMPH,Humidity,HourlyPrecipIn,Conditions,Clouds,dailyrainin,SolarRadiationWatts/m^2,SoftwareType,DateUTC
2013-10-28 00:01:00,56.0,38.0,-100.00,West,264,5.0,13.0,51,0.00,,,0.00,0.000000,,2013-10-28 07:01:00,
2013-10-28 00:12:00,56.0,38.0,-100.00,West,264,5.0,13.0,51,0.00,,,0.00,0.000000,,2013-10-28 07:12:00,
2013-10-28 00:42:00,50.0,42.0,-100.00,WSW,250,7.0,12.0,73,0.00,,,0.00,0.000000,,2013-10-28 07:42:00,
2013-10-28 00:52:00,50.0,42.0,-100.00,WSW,250,7.0,12.0,73,0.00,,,0.00,0.000000,,2013-10-28 07:52:00,
2013-10-28 01:02:00,50.0,42.0,-100.00,WSW,250,7.0,12.0,73,0.00,,,0.00,0.000000,,2013-10-28 08:02:00,
2013-10-28 01:11:00,50.0,42.0,-100.00,WSW,250,7.0,12.0,73,0.00,,,0.00,0.000000,,2013-10-28 08:11:00,
2013-10-28 01:42:00,49.0,42.0,-100.00,South,191,4.0,10.0,77,0.00,,,0.00,0.000000,,2013-10-28 08:42:00,
2013-10-28 01:52:00,49.0,42.0,-100.00,South,191,4.0,10.0,77,0.00,,,0.00,0.000000,,2013-10-28 08:52:00,
2013-10-28 02:02:00,49.0,42.0,-100.00,South,191,4.0,10.0,77,0.00,,,0.00,0.000000,,2013-10-28 09:02:00,
2013-10-28 02:11:00,49.0,42.0,-100.00,South,191,4.0,10.0,77,0.00,,,0.00,0.000000,,2013-10-28 09:11:00,
2013-10-28 02:13:00,49.0,42.0,-100.00,SSE,156,3.0,7.0,76,0.00,,,0.00,0.000000,,2013-10-28 09:13:00,
2013-10-28 02:43:00,49.0,42.0,-100.00,SSE,156,3.0,7.0,76,0.00,,,0.00,0.000000,,2013-10-28 09:43:00,
2013-10-28 02:53:00,49.0,42.0,-100.00,SSE,156,3.0,7.0,76,0.00,,,0.00,0.000000,,2013-10-28 09:53:00,
2013-10-28 03:03:00,49.0,42.0,-100.00,SSE,156,3.0,7.0,76,0.00,,,0.00,0.000000,,2013-10-28 10:03:00,
2013-10-28 03:43:00,50.0,42.0,-100.00,SSW,213,3.0,6.0,74,0.00,,,0.00,0.000000,,2013-10-28 10:43:00,
2013-10-28 03:53:00,50.0,42.0,-100.00,SSW,213,3.0,6.0,74,0.00,,,0.00,0.000000,,2013-10-28 10:53:00,
2013-10-28 04:03:00,50.0,42.0,-100.00,SSW,213,3.0,6.0,74,0.00,,,0.00,0.000000,,2013-10-28 11:03:00,
2013-10-28 04:12:00,50.0,42.0,-100.00,SSW,213,3.0,6.0,74,0.00,,,0.00,0.000000,,2013-10-28 11:12:00,
2013-10-28 04:42:00,51.0,43.0,-100.00,SW,216,5.0,11.0,73,0.00,,,-99.99,0.000000,,2013-10-28 11:42:00,
2013-10-28 04:52:00,51.0,43.0,-100.00,SW,216,5.0,11.0,73,0.00,,,-99.99,0.000000,,2013-10-28 11:52:00,
2013-10-28 05:01:00,51.0,43.0,-100.00,SW,216,5.0,11.0,73,0.00,,,-99.99,0.000000,,2013-10-28 12:01:00,
2013-10-28 05:11:00,51.0,43.0,-100.00,SW,216,5.0,11.0,73,0.00,,,-99.99,0.000000,,2013-10-28 12:11:00,
2013-10-28 05:42:00,51.0,42.0,-100.00,SSW,210,6.0,13.0,72,0.00,,,0.00,0.000000,,2013-10-28 12:42:00,
2013-10-28 05:52:00,51.0,42.0,-100.00,SSW,210,6.0,13.0,72,0.00,,,0.00,0.000000,,2013-10-28 12:52:00,
2013-10-28 06:01:00,51.0,42.0,-100.00,SSW,210,6.0,13.0,72,0.00,,,0.00,0.000000,,2013-10-28 13:01:00,
2013-10-28 06:11:00,51.0,42.0,-100.00,SSW,210,6.0,13.0,72,0.00,,,0.00,0.000000,,2013-10-28 13:11:00,
2013-10-28 06:42:00,49.0,40.0,-100.00,SW,216,4.0,12.0,72,0.00,,,0.00,0.000000,,2013-10-28 13:42:00,
2013-10-28 06:52:00,49.0,40.0,-100.00,SW,216,4.0,12.0,72,0.00,,,0.00,0.000000,,2013-10-28 13:52:00,
2013-10-28 07:02:00,49.0,40.0,-100.00,SW,216,4.0,12.0,72,0.00,,,0.00,0.000000,,2013-10-28 14:02:00,
2013-10-28 07:11:00,49.0,40.0,-100.00,SW,216,4.0,12.0,72,0.00,,,0.00,0.000000,,2013-10-28 14:11:00,
2013-10-28 07:42:00,48.0,40.0,-100.00,SSW,194,2.0,10.0,73,0.00,,,0.00,0.000000,,2013-10-28 14:42:00,
2013-10-28 07:52:00,48.0,40.0,-100.00,SSW,194,2.0,10.0,73,0.00,,,0.00,0.000000,,2013-10-28 14:52:00,
2013-10-28 08:02:00,48.0,40.0,-100.00,SSW,194,2.0,10.0,73,0.00,,,0.00,0.000000,,2013-10-28 15:02:00,
2013-10-28 08:11:00,48.0,40.0,-100.00,SSW,194,2.0,10.0,73,0.00,,,0.00,0.000000,,2013-10-28 15:11:00,
2013-10-28 08:13:00,50.0,40.0,-100.00,SSW,209,4.0,9.0,69,0.00,,,0.00,11.000000,,2013-10-28 15:13:00,
2013-10-28 08:43:00,50.0,40.0,-100.00,SSW,209,4.0,9.0,69,0.00,,,0.00,11.000000,,2013-10-28 15:43:00,
2013-10-28 08:53:00,50.0,40.0,-100.00,SSW,209,4.0,9.0,69,0.00,,,0.00,11.000000,,2013-10-28 15:53:00,
2013-10-28 09:03:00,50.0,40.0,-100.00,SSW,209,4.0,9.0,69,0.00,,,0.00,11.000000,,2013-10-28 16:03:00,
2013-10-28 09:43:00,52.0,39.0,-100.00,SSW,213,3.0,10.0,61,0.00,,,0.00,66.000000,,2013-10-28 16:43:00,
2013-10-28 09:53:00,52.0,39.0,-100.00,SSW,213,3.0,10.0,61,0.00,,,0.00,66.000000,,2013-10-28 16:53:00,
2013-10-28 10:02:00,52.0,39.0,-100.00,SSW,213,3.0,10.0,61,0.00,,,0.00,66.000000,,2013-10-28 17:02:00,
2013-10-28 10:12:00,52.0,39.0,-100.00,SSW,213,3.0,10.0,61,0.00,,,0.00,66.000000,,2013-10-28 17:12:00,
2013-10-28 10:42:00,53.0,39.0,-100.00,SSW,211,5.0,11.0,58,0.00,,,0.00,112.000000,,2013-10-28 17:42:00,
2013-10-28 10:52:00,53.0,39.0,-100.00,SSW,211,5.0,11.0,58,0.00,,,0.00,112.000000,,2013-10-28 17:52:00,
2013-10-28 11:02:00,53.0,39.0,-100.00,SSW,211,5.0,11.0,58,0.00,,,0.00,112.000000,,2013-10-28 18:02:00,
2013-10-28 11:12:00,53.0,39.0,-100.00,SSW,211,5.0,11.0,58,0.00,,,0.00,112.000000,,2013-10-28 18:12:00,
2013-10-28 11:42:00,56.0,40.0,-100.00,SSW,207,8.0,15.0,55,0.00,,,0.00,258.000000,,2013-10-28 18:42:00,
2013-10-28 11:52:00,56.0,40.0,-100.00,SSW,207,8.0,15.0,55,0.00,,,0.00,258.000000,,2013-10-28 18:52:00,
2013-10-28 12:01:00,56.0,40.0,-100.00,SSW,207,8.0,15.0,55,0.00,,,0.00,258.000000,,2013-10-28 19:01:00,
2013-10-28 12:11:00,56.0,40.0,-100.00,SSW,207,8.0,15.0,55,0.00,,,0.00,258.000000,,2013-10-28 19:11:00,
2013-10-28 12:42:00,56.0,39.0,-100.00,SSW,197,9.0,20.0,52,0.00,,,0.00,357.000000,,2013-10-28 19:42:00,
2013-10-28 12:52:00,56.0,39.0,-100.00,SSW,197,9.0,20.0,52,0.00,,,0.00,357.000000,,2013-10-28 19:52:00,
2013-10-28 13:02:00,56.0,39.0,-100.00,SSW,197,9.0,20.0,52,0.00,,,0.00,357.000000,,2013-10-28 20:02:00,
2013-10-28 13:11:00,56.0,39.0,-100.00,SSW,197,9.0,20.0,52,0.00,,,0.00,357.000000,,2013-10-28 20:11:00,
2013-10-28 13:42:00,58.0,42.0,-100.00,SW,214,8.0,20.0,56,0.00,,,0.00,291.000000,,2013-10-28 20:42:00,
2013-10-28 13:52:00,58.0,42.0,-100.00,SW,214,8.0,20.0,56,0.00,,,0.00,291.000000,,2013-10-28 20:52:00,
2013-10-28 14:02:00,58.0,42.0,-100.00,SW,214,8.0,20.0,56,0.00,,,0.00,291.000000,,2013-10-28 21:02:00,
2013-10-28 14:11:00,58.0,42.0,-100.00,SW,214,8.0,20.0,56,0.00,,,0.00,291.000000,,2013-10-28 21:11:00,
2013-10-28 14:13:00,55.0,45.0,-100.00,SSW,207,7.0,13.0,68,0.00,,,0.00,186.000000,,2013-10-28 21:13:00,
2013-10-28 14:43:00,55.0,45.0,-100.00,SSW,207,7.0,13.0,68,0.00,,,0.00,186.000000,,2013-10-28 21:43:00,
2013-10-28 14:54:00,55.0,45.0,-100.00,SSW,207,7.0,13.0,68,0.00,,,0.00,186.000000,,2013-10-28 21:54:00,
2013-10-28 15:03:00,55.0,45.0,-100.00,SSW,207,7.0,13.0,68,0.00,,,0.00,186.000000,,2013-10-28 22:03:00,
2013-10-28 15:43:00,56.0,41.0,-100.00,SW,231,8.0,17.0,56,0.01,,,0.01,220.000000,,2013-10-28 22:43:00,
2013-10-28 15:53:00,56.0,41.0,-100.00,SW,231,8.0,17.0,56,0.01,,,0.01,220.000000,,2013-10-28 22:53:00,
2013-10-28 16:03:00,56.0,41.0,-100.00,SW,231,8.0,17.0,56,0.01,,,0.01,220.000000,,2013-10-28 23:03:00,
2013-10-28 16:12:00,56.0,41.0,-100.00,SW,231,8.0,17.0,56,0.01,,,0.01,220.000000,,2013-10-28 23:12:00,
2013-10-28 16:43:00,51.0,45.0,-100.00,NE,56,6.0,15.0,80,0.00,,,0.01,65.000000,,2013-10-28 23:43:00,
2013-10-28 16:52:00,51.0,45.0,-100.00,NE,56,6.0,15.0,80,0.00,,,0.01,65.000000,,2013-10-28 23:52:00,
2013-10-28 17:01:00,51.0,45.0,-100.00,NE,56,6.0,15.0,80,0.00,,,0.01,65.000000,,2013-10-29 00:01:00,
2013-10-28 17:11:00,51.0,45.0,-100.00,NE,56,6.0,15.0,80,0.00,,,0.01,65.000000,,2013-10-29 00:11:00,
2013-10-28 17:42:00,49.0,46.0,-100.00,ENE,57,4.0,11.0,88,0.06,,,0.07,38.000000,,2013-10-29 00:42:00,
2013-10-28 17:52:00,49.0,46.0,-100.00,ENE,57,4.0,11.0,88,0.06,,,0.07,38.000000,,2013-10-29 00:52:00,
2013-10-28 18:01:00,49.0,46.0,-100.00,ENE,57,4.0,11.0,88,0.06,,,0.07,38.000000,,2013-10-29 01:01:00,
2013-10-28 18:11:00,49.0,46.0,-100.00,ENE,57,4.0,11.0,88,0.06,,,0.07,38.000000,,2013-10-29 01:11:00,
2013-10-28 18:42:00,50.0,45.0,-100.00,NE,49,5.0,7.0,83,0.00,,,0.07,11.000000,,2013-10-29 01:42:00,
2013-10-28 18:53:00,50.0,45.0,-100.00,NE,49,5.0,7.0,83,0.00,,,0.07,11.000000,,2013-10-29 01:53:00,
2013-10-28 19:02:00,50.0,45.0,-100.00,NE,49,5.0,7.0,83,0.00,,,0.07,11.000000,,2013-10-29 02:02:00,
2013-10-28 19:11:00,50.0,45.0,-100.00,NE,49,5.0,7.0,83,0.00,,,0.07,11.000000,,2013-10-29 02:11:00,
2013-10-28 19:13:00,50.0,45.0,-100.00,NE,47,2.0,7.0,84,0.00,,,0.07,0.000000,,2013-10-29 02:13:00,
2013-10-28 19:44:00,50.0,45.0,-100.00,NE,47,2.0,7.0,84,0.00,,,0.07,0.000000,,2013-10-29 02:44:00,
2013-10-28 19:54:00,50.0,45.0,-100.00,NE,47,2.0,7.0,84,0.00,,,0.07,0.000000,,2013-10-29 02:54:00,
2013-10-28 20:03:00,50.0,45.0,-100.00,NE,47,2.0,7.0,84,0.00,,,0.07,0.000000,,2013-10-29 03:03:00,
2013-10-28 20:13:00,50.0,44.0,-100.00,SSW,210,3.0,6.0,81,0.00,,,0.07,0.000000,,2013-10-29 03:13:00,
2013-10-28 20:40:00,-999.0,-99.9,-100.00,SSW,210,3.0,6.0,81,0.00,,,0.07,0.000000,,2013-10-29 03:40:00,
2013-10-28 20:48:00,50.0,44.0,-100.00,SSW,210,3.0,6.0,81,0.00,,,0.07,0.000000,,2013-10-29 03:48:00,
2013-10-28 20:55:00,50.0,44.0,-100.00,SSW,210,3.0,6.0,81,0.00,,,0.07,0.000000,,2013-10-29 03:55:00,
2013-10-28 21:03:00,50.0,44.0,-100.00,SSW,210,3.0,6.0,81,0.00,,,0.07,0.000000,,2013-10-29 04:03:00,
2013-10-28 21:13:00,50.0,45.0,-100.00,West,266,1.0,6.0,83,0.00,,,0.07,0.000000,,2013-10-29 04:13:00,
2013-10-28 21:44:00,50.0,45.0,-100.00,West,266,1.0,6.0,83,0.00,,,0.07,0.000000,,2013-10-29 04:44:00,
2013-10-28 21:57:00,50.0,45.0,-100.00,West,266,1.0,6.0,83,0.00,,,0.07,0.000000,,2013-10-29 04:57:00,
2013-10-28 22:04:00,50.0,45.0,-100.00,West,266,1.0,6.0,83,0.00,,,0.07,0.000000,,2013-10-29 05:04:00,
2013-10-28 22:13:00,50.0,45.0,-100.00,SSW,199,3.0,6.0,83,0.00,,,0.07,0.000000,,2013-10-29 05:13:00,
2013-10-28 22:45:00,50.0,45.0,-100.00,SSW,199,3.0,6.0,83,0.00,,,0.07,0.000000,,2013-10-29 05:45:00,
2013-10-28 22:52:00,50.0,45.0,-100.00,SSW,199,3.0,6.0,83,0.00,,,0.07,0.000000,,2013-10-29 05:52:00,
2013-10-28 23:06:00,50.0,45.0,-100.00,SSW,199,3.0,6.0,83,0.00,,,0.07,0.000000,,2013-10-29 06:06:00,
2013-10-28 23:43:00,49.0,44.0,-100.00,SSW,210,1.0,4.0,82,0.00,,,0.07,0.000000,,2013-10-29 06:43:00,
2013-10-28 23:52:00,49.0,44.0,-100.00,SSW,210,1.0,4.0,82,0.00,,,0.07,0.000000,,2013-10-29 06:52:00,